createdAt,value
2018-01-22T00:00:40.819Z,74.20
2018-01-22T00:03:09.124Z,73.80
2018-01-22T00:05:36.665Z,73.80
2018-01-22T00:08:04.210Z,73.60
2018-01-22T00:10:31.743Z,73.70
2018-01-22T00:12:59.281Z,73.40
2018-01-22T00:15:26.822Z,73.30
2018-01-22T00:17:54.368Z,73.30
2018-01-22T00:20:21.947Z,73.20
2018-01-22T00:22:49.469Z,72.90
2018-01-22T00:25:16.997Z,73.10
2018-01-22T00:27:44.531Z,72.90
2018-01-22T00:30:14.107Z,72.80
2018-01-22T00:32:42.411Z,73.00
2018-01-22T00:35:09.931Z,72.80
2018-01-22T00:37:37.454Z,72.90
2018-01-22T00:40:04.986Z,73.00
2018-01-22T00:42:32.487Z,73.00
2018-01-22T00:45:00.010Z,73.10
2018-01-22T00:47:27.550Z,73.20
2018-01-22T00:49:55.071Z,73.20
2018-01-22T00:52:22.599Z,73.70
2018-01-22T00:54:50.111Z,73.70
2018-01-22T00:57:18.401Z,73.70
2018-01-22T00:59:45.973Z,73.70
2018-01-22T01:02:13.491Z,73.80
2018-01-22T01:04:41.063Z,73.80
2018-01-22T01:07:09.383Z,74.60
2018-01-22T01:09:36.924Z,74.40
2018-01-22T01:12:04.447Z,74.40
2018-01-22T01:14:31.983Z,74.70
2018-01-22T01:16:59.509Z,74.90
2018-01-22T01:19:27.023Z,74.90
2018-01-22T01:21:54.558Z,74.80
2018-01-22T01:24:22.081Z,75.10
2018-01-22T01:26:49.588Z,75.20
2018-01-22T01:29:17.112Z,75.40
2018-01-22T01:31:44.627Z,75.70
2018-01-22T01:34:12.904Z,76.20
2018-01-22T01:36:41.195Z,76.30
2018-01-22T01:39:08.711Z,76.40
2018-01-22T01:41:36.235Z,76.40
2018-01-22T01:44:03.774Z,76.30
2018-01-22T01:46:31.313Z,76.40
2018-01-22T01:49:04.425Z,75.80
2018-01-22T01:51:31.943Z,75.80
2018-01-22T01:53:59.485Z,75.70
2018-01-22T01:56:27.029Z,76.10
2018-01-22T01:58:55.336Z,76.60
2018-01-22T02:01:22.857Z,76.40
2018-01-22T02:03:50.387Z,76.90
2018-01-22T02:06:18.673Z,76.60
2018-01-22T02:08:46.209Z,76.50
2018-01-22T02:11:13.765Z,76.60
2018-01-22T02:13:41.293Z,76.40
2018-01-22T02:16:08.905Z,76.50
2018-01-22T02:18:37.465Z,76.90
2018-01-22T02:21:05.052Z,76.90
2018-01-22T02:23:32.605Z,77.50
2018-01-22T02:26:00.155Z,77.60
2018-01-22T02:28:28.453Z,77.30
2018-01-22T02:30:56.003Z,77.20
2018-01-22T02:33:23.545Z,78.20
2018-01-22T02:35:51.862Z,78.70
2018-01-22T02:38:19.425Z,77.90
2018-01-22T02:40:46.975Z,77.20
2018-01-22T02:43:14.523Z,77.30
2018-01-22T02:45:42.075Z,76.40
2018-01-22T02:48:09.611Z,75.00
2018-01-22T02:50:37.131Z,74.00
2018-01-22T02:53:04.643Z,73.30
2018-01-22T02:55:32.925Z,74.10
2018-01-22T02:58:00.469Z,74.00
2018-01-22T03:00:28.005Z,74.40
2018-01-22T03:02:55.551Z,74.40
2018-01-22T03:05:23.059Z,74.50
2018-01-22T03:07:50.579Z,74.30
2018-01-22T03:10:18.133Z,74.20
2018-01-22T03:12:45.651Z,74.40
2018-01-22T03:15:13.187Z,75.00
2018-01-22T03:17:41.498Z,74.80
2018-01-22T03:20:09.027Z,74.80
2018-01-22T03:22:36.551Z,75.00
2018-01-22T03:25:04.115Z,76.20
2018-01-22T03:27:31.661Z,76.10
2018-01-22T03:29:59.187Z,75.80
2018-01-22T03:32:26.724Z,75.30
2018-01-22T03:34:54.238Z,75.50
2018-01-22T03:37:21.769Z,75.30
2018-01-22T03:39:49.327Z,75.40
2018-01-22T03:42:16.879Z,75.70
2018-01-22T03:44:44.427Z,75.80
2018-01-22T03:47:11.989Z,76.20
2018-01-22T03:49:39.531Z,76.40
2018-01-22T03:52:07.052Z,76.50
2018-01-22T03:54:34.789Z,76.80
2018-01-22T03:57:03.155Z,75.90
2018-01-22T03:59:30.703Z,75.80
2018-01-22T04:01:58.254Z,76.30
2018-01-22T04:04:25.837Z,75.40
2018-01-22T04:06:53.403Z,76.10
2018-01-22T04:09:21.081Z,75.80
2018-01-22T04:11:48.641Z,76.30
2018-01-22T04:14:16.172Z,76.80
2018-01-22T04:16:43.733Z,77.10
2018-01-22T04:19:11.265Z,77.60
2018-01-22T04:21:38.804Z,77.50
2018-01-22T04:24:06.348Z,77.10
2018-01-22T04:26:33.893Z,76.80
2018-01-22T04:29:01.432Z,76.70
2018-01-22T04:31:28.991Z,76.70
2018-01-22T04:33:56.543Z,76.60
2018-01-22T04:36:24.095Z,76.90
2018-01-22T04:38:51.795Z,77.00
2018-01-22T04:41:19.339Z,77.20
2018-01-22T04:43:46.861Z,77.70
2018-01-22T04:46:14.403Z,78.10
2018-01-22T04:48:41.981Z,78.30
2018-01-22T04:51:09.497Z,78.40
2018-01-22T04:53:37.051Z,78.60
2018-01-22T04:56:04.583Z,78.50
2018-01-22T04:58:32.101Z,78.50
2018-01-22T05:00:59.658Z,78.60
2018-01-22T05:03:27.171Z,78.60
2018-01-22T05:05:54.717Z,78.30
2018-01-22T05:08:22.239Z,78.20
2018-01-22T05:10:49.763Z,78.20
2018-01-22T05:13:17.291Z,78.30
2018-01-22T05:15:44.824Z,78.30
2018-01-22T05:18:13.111Z,78.40
2018-01-22T05:20:40.627Z,78.30
2018-01-22T05:23:08.915Z,78.60
2018-01-22T05:25:36.437Z,78.50
2018-01-22T05:28:04.727Z,79.80
2018-01-22T05:30:32.298Z,79.60
2018-01-22T05:32:59.815Z,79.60
2018-01-22T05:35:28.127Z,79.60
2018-01-22T05:37:55.643Z,79.50
2018-01-22T05:40:23.155Z,79.60
2018-01-22T05:42:50.709Z,79.70
2018-01-22T05:45:18.235Z,79.80
2018-01-22T05:47:45.791Z,79.80
2018-01-22T05:50:13.313Z,79.50
2018-01-22T05:52:40.846Z,79.20
2018-01-22T05:55:08.386Z,79.10
2018-01-22T05:57:35.943Z,80.10
2018-01-22T06:00:04.327Z,80.50
2018-01-22T06:02:31.879Z,80.30
2018-01-22T06:04:59.421Z,79.80
2018-01-22T06:07:27.115Z,79.70
2018-01-22T06:09:54.631Z,79.50
2018-01-22T06:12:22.933Z,80.00
2018-01-22T06:14:50.641Z,79.80
2018-01-22T06:17:18.190Z,80.20
2018-01-22T06:19:45.721Z,80.40
2018-01-22T06:22:13.269Z,80.40
2018-01-22T06:24:40.847Z,80.30
2018-01-22T06:27:08.405Z,80.30
2018-01-22T06:29:35.974Z,80.10
2018-01-22T06:32:03.545Z,80.40
2018-01-22T06:34:31.121Z,80.10
2018-01-22T06:36:58.733Z,80.20
2018-01-22T06:39:26.297Z,80.30
2018-01-22T06:41:54.223Z,80.50
2018-01-22T06:44:21.979Z,80.50
2018-01-22T06:46:49.541Z,80.40
2018-01-22T06:49:17.895Z,80.60
2018-01-22T06:51:46.201Z,80.50
2018-01-22T06:54:13.749Z,80.80
2018-01-22T06:56:41.287Z,80.90
2018-01-22T06:59:08.849Z,80.70
2018-01-22T07:01:36.421Z,80.50
2018-01-22T07:04:04.041Z,80.20
2018-01-22T07:06:31.603Z,80.50
2018-01-22T07:08:59.985Z,80.80
2018-01-22T07:11:27.570Z,80.80
2018-01-22T07:13:55.083Z,80.80
2018-01-22T07:16:22.721Z,80.80
2018-01-22T07:18:50.309Z,80.70
2018-01-22T07:21:17.881Z,79.90
2018-01-22T07:23:45.463Z,79.50
2018-01-22T07:26:13.067Z,79.80
2018-01-22T07:28:40.632Z,79.60
2018-01-22T07:31:08.997Z,79.10
2018-01-22T07:33:36.592Z,79.10
2018-01-22T07:36:04.149Z,79.10
2018-01-22T07:38:31.747Z,78.90
2018-01-22T07:40:59.627Z,78.90
2018-01-22T07:43:27.206Z,78.70
2018-01-22T07:45:54.771Z,78.20
2018-01-22T07:48:23.504Z,78.30
2018-01-22T07:50:52.205Z,78.60
2018-01-22T07:53:19.759Z,78.50
2018-01-22T07:55:47.494Z,78.10
2018-01-22T07:58:15.074Z,77.60
2018-01-22T08:00:43.819Z,77.40
2018-01-22T08:03:12.106Z,77.80
2018-01-22T08:05:39.612Z,77.70
2018-01-22T08:08:07.198Z,77.50
2018-01-22T08:10:34.671Z,76.80
2018-01-22T08:13:02.233Z,76.80
2018-01-22T08:15:29.746Z,76.70
2018-01-22T08:17:57.262Z,76.80
2018-01-22T08:20:24.771Z,76.60
2018-01-22T08:22:52.292Z,76.60
2018-01-22T08:25:19.817Z,76.80
2018-01-22T08:27:47.323Z,77.00
2018-01-22T08:30:14.861Z,77.80
2018-01-22T08:32:42.367Z,77.00
2018-01-22T08:35:09.886Z,76.70
2018-01-22T08:37:37.400Z,76.40
2018-01-22T08:40:04.904Z,76.10
2018-01-22T08:42:32.406Z,75.10
2018-01-22T08:44:59.918Z,74.90
2018-01-22T08:47:27.437Z,74.50
2018-01-22T08:49:54.945Z,74.10
2018-01-22T08:52:23.260Z,73.50
2018-01-22T08:54:50.773Z,73.50
2018-01-22T08:57:18.281Z,73.40
2018-01-22T08:59:45.806Z,73.00
2018-01-22T09:02:13.712Z,72.40
2018-01-22T09:04:41.219Z,71.90
2018-01-22T09:07:08.741Z,72.70
2018-01-22T09:09:36.235Z,70.90
2018-01-22T09:12:03.733Z,71.00
2018-01-22T09:14:31.259Z,71.30
2018-01-22T09:16:58.770Z,71.00
2018-01-22T09:19:26.269Z,70.80
2018-01-22T09:21:53.831Z,69.90
2018-01-22T09:24:21.368Z,70.40
2018-01-22T09:26:49.632Z,71.00
2018-01-22T09:29:17.146Z,71.00
2018-01-22T09:31:44.708Z,70.20
2018-01-22T09:34:12.239Z,70.00
2018-01-22T09:36:39.781Z,69.50
2018-01-22T09:39:07.294Z,69.10
2018-01-22T09:41:34.802Z,68.80
2018-01-22T09:44:03.089Z,68.80
2018-01-22T09:46:30.606Z,68.70
2018-01-22T09:48:58.149Z,68.70
2018-01-22T09:51:25.681Z,68.20
2018-01-22T09:53:53.223Z,67.80
2018-01-22T09:56:20.751Z,67.80
2018-01-22T09:58:48.252Z,67.60
2018-01-22T10:01:15.767Z,66.40
2018-01-22T10:03:43.279Z,67.00
2018-01-22T10:06:10.802Z,66.90
2018-01-22T10:08:39.070Z,66.20
2018-01-22T10:11:07.364Z,66.20
2018-01-22T10:13:34.887Z,66.00
2018-01-22T10:16:02.423Z,64.80
2018-01-22T10:18:29.936Z,64.80
2018-01-22T10:20:58.214Z,63.30
2018-01-22T10:23:26.483Z,63.60
2018-01-22T10:25:54.781Z,63.90
2018-01-22T10:28:22.315Z,63.80
2018-01-22T10:30:49.828Z,63.80
2018-01-22T10:33:17.339Z,63.50
2018-01-22T10:35:45.639Z,62.40
2018-01-22T10:38:13.159Z,62.40
2018-01-22T10:40:40.667Z,63.00
2018-01-22T10:43:08.199Z,61.00
2018-01-22T10:45:35.721Z,59.30
2018-01-22T10:48:03.225Z,59.20
2018-01-22T10:50:30.738Z,59.40
2018-01-22T10:52:58.235Z,60.20
2018-01-22T10:55:25.755Z,61.40
2018-01-22T10:57:53.306Z,61.60
2018-01-22T11:00:20.814Z,62.00
2018-01-22T11:02:48.347Z,62.50
2018-01-22T11:05:15.903Z,62.90
2018-01-22T11:07:43.449Z,63.90
2018-01-22T11:10:10.985Z,64.10
2018-01-22T11:12:38.503Z,65.20
2018-01-22T11:15:06.048Z,65.70
2018-01-22T11:17:34.341Z,66.20
2018-01-22T11:20:02.649Z,65.20
2018-01-22T11:22:30.160Z,65.00
2018-01-22T11:24:58.426Z,64.90
2018-01-22T11:27:25.941Z,64.90
2018-01-22T11:29:53.451Z,64.70
2018-01-22T11:32:21.002Z,64.30
2018-01-22T11:34:48.730Z,63.50
2018-01-22T11:37:16.255Z,63.50
2018-01-22T11:39:43.742Z,63.60
2018-01-22T11:42:11.295Z,62.60
2018-01-22T11:44:38.811Z,62.80
2018-01-22T11:47:06.311Z,62.70
2018-01-22T11:49:33.838Z,60.30
2018-01-22T11:52:02.180Z,57.90
2018-01-22T11:54:29.677Z,57.90
2018-01-22T11:56:57.264Z,58.10
2018-01-22T11:59:24.893Z,57.70
2018-01-22T12:01:53.309Z,57.90
2018-01-22T12:04:20.908Z,57.80
2018-01-22T12:06:48.500Z,57.20
2018-01-22T12:09:16.100Z,56.90
2018-01-22T12:11:43.664Z,55.70
2018-01-22T12:14:11.223Z,55.80
2018-01-22T12:16:38.795Z,56.20
2018-01-22T12:19:06.346Z,57.00
2018-01-22T12:21:33.892Z,56.50
2018-01-22T12:24:01.453Z,57.30
2018-01-22T12:26:29.023Z,57.40
2018-01-22T12:28:56.550Z,58.60
2018-01-22T12:31:24.139Z,58.00
2018-01-22T12:33:51.704Z,57.70
2018-01-22T12:36:20.062Z,56.90
2018-01-22T12:38:47.609Z,57.00
2018-01-22T12:41:16.356Z,56.10
2018-01-22T12:43:43.889Z,56.60
2018-01-22T12:46:11.420Z,55.80
2018-01-22T12:48:38.963Z,56.00
2018-01-22T12:51:07.338Z,54.60
2018-01-22T12:53:34.871Z,54.50
2018-01-22T12:56:02.421Z,54.50
2018-01-22T12:58:29.971Z,54.60
2018-01-22T13:00:57.530Z,54.60
2018-01-22T13:03:25.878Z,55.70
2018-01-22T13:05:53.416Z,55.10
2018-01-22T13:08:20.974Z,55.20
2018-01-22T13:10:49.291Z,56.10
2018-01-22T13:13:16.816Z,56.10
2018-01-22T13:15:44.380Z,56.40
2018-01-22T13:18:11.950Z,56.90
2018-01-22T13:20:39.500Z,56.90
2018-01-22T13:23:07.044Z,57.90
2018-01-22T13:25:39.090Z,56.70
2018-01-22T13:28:06.596Z,56.60
2018-01-22T13:30:34.107Z,57.10
2018-01-22T13:33:01.624Z,57.20
2018-01-22T13:35:29.157Z,57.90
2018-01-22T13:37:56.681Z,57.60
2018-01-22T13:40:44.985Z,58.30
2018-01-22T13:43:12.488Z,58.20
2018-01-22T13:45:39.988Z,58.60
2018-01-22T13:48:07.508Z,58.70
2018-01-22T13:50:35.014Z,58.50
2018-01-22T13:53:02.545Z,58.70
2018-01-22T13:55:30.828Z,59.50
2018-01-22T13:57:58.336Z,58.90
2018-01-22T14:00:25.860Z,58.80
2018-01-22T14:02:53.394Z,58.90
2018-01-22T14:05:21.671Z,59.80
2018-01-22T14:07:49.193Z,59.70
2018-01-22T14:10:16.707Z,60.90
2018-01-22T14:12:44.241Z,60.50
2018-01-22T14:15:12.514Z,59.40
2018-01-22T14:17:40.812Z,59.60
2018-01-22T14:20:08.320Z,59.60
2018-01-22T14:22:35.854Z,60.00
2018-01-22T14:25:03.374Z,60.30
2018-01-22T14:27:31.668Z,61.50
2018-01-22T14:30:00.552Z,61.40
2018-01-22T14:32:28.106Z,61.40
2018-01-22T14:34:56.404Z,62.10
2018-01-22T14:37:23.918Z,62.10
2018-01-22T14:39:52.220Z,62.70
2018-01-22T14:42:20.494Z,63.30
2018-01-22T14:44:48.003Z,63.30
2018-01-22T14:47:15.522Z,63.80
2018-01-22T14:49:43.053Z,63.20
2018-01-22T14:52:11.336Z,63.80
2018-01-22T14:54:38.865Z,63.70
2018-01-22T14:57:06.400Z,64.60
2018-01-22T14:59:33.923Z,64.00
2018-01-22T15:02:01.461Z,64.60
2018-01-22T15:04:28.972Z,64.30
2018-01-22T15:06:56.490Z,64.50
2018-01-22T15:09:24.777Z,65.20
2018-01-22T15:11:52.290Z,65.20
2018-01-22T15:14:19.805Z,65.60
2018-01-22T15:16:47.326Z,65.90
2018-01-22T15:19:14.840Z,66.20
2018-01-22T15:21:42.351Z,66.20
2018-01-22T15:24:09.851Z,66.40
2018-01-22T15:26:37.358Z,65.70
2018-01-22T15:29:04.889Z,65.90
2018-01-22T15:31:32.393Z,64.90
2018-01-22T15:33:59.900Z,65.70
2018-01-22T15:36:27.443Z,64.60
2018-01-22T15:38:54.949Z,65.00
2018-01-22T15:41:22.463Z,65.70
2018-01-22T15:43:50.008Z,67.20
2018-01-22T15:46:17.511Z,68.10
2018-01-22T15:48:45.051Z,68.80
2018-01-22T15:51:12.596Z,69.80
2018-01-22T15:53:40.100Z,71.00
2018-01-22T15:56:07.607Z,72.60
2018-01-22T15:58:35.911Z,74.50
2018-01-22T16:01:03.418Z,75.10
2018-01-22T16:03:30.929Z,75.80
2018-01-22T16:05:58.472Z,76.40
2018-01-22T16:08:25.992Z,77.20
2018-01-22T16:10:53.496Z,78.00
2018-01-22T16:13:21.062Z,78.30
2018-01-22T16:15:48.632Z,79.20
2018-01-22T16:18:16.188Z,79.60
2018-01-22T16:20:43.808Z,79.90
2018-01-22T16:23:11.336Z,79.90
2018-01-22T16:25:38.955Z,79.70
2018-01-22T16:28:06.518Z,79.60
2018-01-22T16:30:34.084Z,79.50
2018-01-22T16:33:01.665Z,79.60
2018-01-22T16:35:29.202Z,79.80
2018-01-22T16:37:56.778Z,80.00
2018-01-22T16:40:24.358Z,80.10
2018-01-22T16:42:53.114Z,80.10
2018-01-22T16:45:20.680Z,79.90
2018-01-22T16:47:53.928Z,80.10
2018-01-22T16:50:21.456Z,80.50
2018-01-22T16:52:49.740Z,80.20
2018-01-22T16:55:19.144Z,80.30
2018-01-22T16:57:46.687Z,80.10
2018-01-22T17:00:15.012Z,80.80
2018-01-22T17:02:42.566Z,80.20
2018-01-22T17:05:10.163Z,80.10
2018-01-22T17:07:37.742Z,80.10
2018-01-22T17:10:05.308Z,79.80
2018-01-22T17:12:34.053Z,79.70
2018-01-22T17:15:01.902Z,79.70
2018-01-22T17:17:29.473Z,79.40
2018-01-22T17:19:57.052Z,79.60
2018-01-22T17:22:25.824Z,79.80
2018-01-22T17:24:54.615Z,80.10
2018-01-22T17:27:22.207Z,79.70
2018-01-22T17:29:49.765Z,80.00
2018-01-22T17:32:18.449Z,80.30
2018-01-22T17:34:46.008Z,80.30
2018-01-22T17:37:13.524Z,80.20
2018-01-22T17:39:41.060Z,79.90
2018-01-22T17:42:09.360Z,79.30
2018-01-22T17:44:36.903Z,79.30
2018-01-22T17:47:04.464Z,79.40
2018-01-22T17:49:31.984Z,79.70
2018-01-22T17:51:59.522Z,80.10
2018-01-22T17:54:27.072Z,80.30
2018-01-22T17:56:55.812Z,80.30
2018-01-22T17:59:24.940Z,79.90
2018-01-22T18:01:52.512Z,79.80
2018-01-22T18:04:20.062Z,80.30
2018-01-22T18:06:47.612Z,80.80
2018-01-22T18:09:15.178Z,81.00
2018-01-22T18:11:42.770Z,81.30
2018-01-22T18:14:10.298Z,81.80
2018-01-22T18:16:37.895Z,82.20
2018-01-22T18:19:05.697Z,82.40
2018-01-22T18:21:34.039Z,83.00
2018-01-22T18:24:01.623Z,82.90
2018-01-22T18:26:29.180Z,83.00
2018-01-22T18:28:56.700Z,83.40
2018-01-22T18:31:24.298Z,83.60
2018-01-22T18:33:51.925Z,83.90
2018-01-22T18:36:19.496Z,84.30
2018-01-22T18:38:47.048Z,84.60
2018-01-22T18:41:14.632Z,84.90
2018-01-22T18:43:42.171Z,85.30
2018-01-22T18:46:10.581Z,85.70
2018-01-22T18:48:38.872Z,85.80
2018-01-22T18:51:06.456Z,85.70
2018-01-22T18:53:34.768Z,86.10
2018-01-22T18:56:02.356Z,86.10
2018-01-22T18:58:29.869Z,86.20
2018-01-22T19:00:57.454Z,86.30
2018-01-22T19:03:24.984Z,86.50
2018-01-22T19:05:52.560Z,86.90
2018-01-22T19:08:20.187Z,86.60
2018-01-22T19:10:47.706Z,86.40
2018-01-22T19:13:15.268Z,86.80
2018-01-22T19:15:44.056Z,87.10
2018-01-22T19:18:11.926Z,87.20
2018-01-22T19:20:40.671Z,87.80
2018-01-22T19:23:08.226Z,87.20
2018-01-22T19:25:35.771Z,87.40
2018-01-22T19:28:04.414Z,87.40
2018-01-22T19:30:32.021Z,87.50
2018-01-22T19:32:59.576Z,87.40
2018-01-22T19:35:27.166Z,87.60
2018-01-22T19:37:54.845Z,87.70
2018-01-22T19:40:22.443Z,87.70
2018-01-22T19:42:50.035Z,87.70
2018-01-22T19:45:17.620Z,87.80
2018-01-22T19:47:46.028Z,87.80
2018-01-22T19:50:13.600Z,87.80
2018-01-22T19:52:41.160Z,87.80
2018-01-22T19:55:08.706Z,87.60
2018-01-22T19:57:37.021Z,87.80
2018-01-22T20:00:04.623Z,87.80
2018-01-22T20:02:32.954Z,87.60
2018-01-22T20:05:01.674Z,87.60
2018-01-22T20:07:29.239Z,87.60
2018-01-22T20:09:56.773Z,88.10
2018-01-22T20:12:24.362Z,88.30
2018-01-22T20:14:51.908Z,87.60
2018-01-22T20:17:19.464Z,88.20
2018-01-22T20:19:48.116Z,87.60
2018-01-22T20:22:15.668Z,87.50
2018-01-22T20:24:43.212Z,87.50
2018-01-22T20:27:11.514Z,87.40
2018-01-22T20:29:39.094Z,88.00
2018-01-22T20:32:06.812Z,87.40
2018-01-22T20:34:34.348Z,87.40
2018-01-22T20:37:03.135Z,87.30
2018-01-22T20:39:30.696Z,87.50
2018-01-22T20:41:59.044Z,87.50
2018-01-22T20:44:26.662Z,87.40
2018-01-22T20:46:54.244Z,87.30
2018-01-22T20:49:21.806Z,87.40
2018-01-22T20:51:50.102Z,87.30
2018-01-22T20:54:17.658Z,87.30
2018-01-22T20:56:45.220Z,87.30
2018-01-22T20:59:14.011Z,87.20
2018-01-22T21:01:41.588Z,87.50
2018-01-22T21:04:09.166Z,87.60
2018-01-22T21:06:36.770Z,87.70
2018-01-22T21:09:04.292Z,87.90
2018-01-22T21:11:32.626Z,88.00
2018-01-22T21:14:00.282Z,87.90
2018-01-22T21:16:28.642Z,88.10
2018-01-22T21:18:56.200Z,88.10
2018-01-22T21:21:23.789Z,88.30
2018-01-22T21:23:52.449Z,88.30
2018-01-22T21:26:20.106Z,88.20
2018-01-22T21:28:47.680Z,88.30
2018-01-22T21:31:15.250Z,88.30
2018-01-22T21:33:42.867Z,88.30
2018-01-22T21:36:11.620Z,88.50
2018-01-22T21:38:39.166Z,88.70
2018-01-22T21:41:06.733Z,88.70
2018-01-22T21:43:35.069Z,88.60
2018-01-22T21:46:02.659Z,88.80
2018-01-22T21:48:30.264Z,88.70
2018-01-22T21:50:57.799Z,88.80
2018-01-22T21:53:25.343Z,88.80
2018-01-22T21:55:52.892Z,88.70
2018-01-22T21:58:20.453Z,88.70
2018-01-22T22:00:48.020Z,88.70
2018-01-22T22:03:15.566Z,88.60
2018-01-22T22:05:43.132Z,88.70
2018-01-22T22:08:10.700Z,88.70
2018-01-22T22:10:38.276Z,88.80
2018-01-22T22:13:06.233Z,88.80
2018-01-22T22:15:34.944Z,88.80
2018-01-22T22:18:02.498Z,88.80
2018-01-22T22:20:30.066Z,88.90
2018-01-22T22:22:57.640Z,88.90
2018-01-22T22:25:25.232Z,88.60
2018-01-22T22:27:52.782Z,88.70
2018-01-22T22:30:21.064Z,88.90
2018-01-22T22:32:48.651Z,88.70
2018-01-22T22:35:16.161Z,88.80
2018-01-22T22:37:43.882Z,88.60
2018-01-22T22:40:11.424Z,88.50
2018-01-22T22:42:39.014Z,88.70
2018-01-22T22:45:06.538Z,88.70
2018-01-22T22:47:34.129Z,89.00
2018-01-22T22:50:01.660Z,89.10
2018-01-22T22:52:29.200Z,89.20
2018-01-22T22:54:56.740Z,89.00
2018-01-22T22:57:25.024Z,89.00
2018-01-22T22:59:52.552Z,88.90
2018-01-22T23:02:21.383Z,89.20
2018-01-22T23:04:49.560Z,89.30
2018-01-22T23:07:17.094Z,89.50
2018-01-22T23:09:45.412Z,89.60
2018-01-22T23:12:13.885Z,89.80
2018-01-22T23:14:41.414Z,89.70
2018-01-22T23:17:10.132Z,89.70
2018-01-22T23:19:38.147Z,89.70
2018-01-22T23:22:06.894Z,89.50
2018-01-22T23:24:34.453Z,89.40
2018-01-22T23:27:02.095Z,89.60
2018-01-22T23:29:29.698Z,89.70
2018-01-22T23:31:57.280Z,89.80
2018-01-22T23:34:24.863Z,89.80
2018-01-22T23:36:52.430Z,89.60
2018-01-22T23:39:20.013Z,89.40
2018-01-22T23:41:47.541Z,89.70
2018-01-22T23:44:15.832Z,89.60
2018-01-22T23:46:43.389Z,89.50
2018-01-22T23:49:12.093Z,89.50
2018-01-22T23:51:39.619Z,89.50
2018-01-22T23:54:08.729Z,89.80
2018-01-22T23:56:36.289Z,89.80
2018-01-22T23:59:03.839Z,89.90
